createdAt,value
2023-10-22T00:00:11.196Z,2.27
2023-10-22T00:02:42.095Z,2.40
2023-10-22T00:05:10.313Z,2.53
2023-10-22T00:07:37.939Z,2.20
2023-10-22T00:10:05.525Z,2.30
2023-10-22T00:12:34.166Z,1.90
2023-10-22T00:15:01.703Z,2.37
2023-10-22T00:17:29.798Z,2.03
2023-10-22T00:19:57.194Z,2.00
2023-10-22T00:22:24.396Z,2.50
2023-10-22T00:24:51.962Z,2.60
2023-10-22T00:27:19.300Z,2.77
2023-10-22T00:29:47.163Z,2.47
2023-10-22T00:32:14.374Z,2.27
2023-10-22T00:34:41.918Z,2.30
2023-10-22T00:37:09.529Z,2.20
2023-10-22T00:39:36.844Z,3.80
2023-10-22T00:42:04.167Z,2.63
2023-10-22T00:44:31.745Z,2.10
2023-10-22T00:46:59.640Z,2.20
2023-10-22T00:49:27.573Z,2.70
2023-10-22T00:51:54.979Z,2.00
2023-10-22T00:54:23.699Z,2.37
2023-10-22T00:56:54.598Z,2.43
2023-10-22T00:59:22.771Z,3.27
2023-10-22T01:01:50.041Z,2.70
2023-10-22T01:04:17.618Z,2.87
2023-10-22T01:06:48.462Z,2.50
2023-10-22T01:09:17.609Z,2.50
2023-10-22T01:12:01.379Z,2.40
2023-10-22T01:14:30.226Z,2.53
2023-10-22T01:16:58.905Z,2.27
2023-10-22T01:19:26.488Z,2.70
2023-10-22T01:21:53.901Z,2.40
2023-10-22T01:24:21.206Z,2.00
2023-10-22T01:26:49.307Z,2.03
2023-10-22T01:29:16.756Z,2.30
2023-10-22T01:31:44.284Z,2.10
2023-10-22T01:34:12.052Z,2.70
2023-10-22T01:36:39.399Z,2.40
2023-10-22T01:39:07.092Z,1.90
2023-10-22T01:41:34.548Z,2.20
2023-10-22T01:44:01.885Z,2.40
2023-10-22T01:46:30.332Z,1.80
2023-10-22T01:48:58.314Z,2.30
2023-10-22T01:51:25.836Z,2.70
2023-10-22T01:53:53.095Z,2.57
2023-10-22T01:56:20.445Z,2.30
2023-10-22T01:58:48.026Z,2.60
2023-10-22T02:01:16.371Z,2.10
2023-10-22T02:03:46.642Z,2.07
2023-10-22T02:06:14.923Z,2.00
2023-10-22T02:08:42.842Z,2.13
2023-10-22T02:11:11.151Z,1.90
2023-10-22T02:13:39.046Z,1.90
2023-10-22T02:16:06.688Z,2.10
2023-10-22T02:18:35.844Z,1.90
2023-10-22T02:21:05.024Z,2.00
2023-10-22T02:23:32.381Z,3.17
2023-10-22T02:26:00.016Z,2.40
2023-10-22T02:28:27.214Z,2.23
2023-10-22T02:30:54.462Z,2.10
2023-10-22T02:33:21.814Z,2.50
2023-10-22T02:35:49.344Z,2.50
2023-10-22T02:38:17.784Z,2.50
2023-10-22T02:40:46.159Z,2.40
2023-10-22T02:43:13.915Z,2.40
2023-10-22T02:45:49.975Z,2.57
2023-10-22T02:48:17.449Z,2.60
2023-10-22T02:50:46.430Z,2.60
2023-10-22T02:53:14.078Z,2.20
2023-10-22T02:55:41.650Z,2.30
2023-10-22T02:58:08.962Z,2.20
2023-10-22T03:00:37.659Z,2.03
2023-10-22T03:03:06.277Z,2.47
2023-10-22T03:05:34.599Z,2.27
2023-10-22T03:08:02.590Z,2.13
2023-10-22T03:10:29.980Z,2.73
2023-10-22T03:12:59.243Z,2.30
2023-10-22T03:15:29.439Z,2.20
2023-10-22T03:17:58.492Z,2.00
2023-10-22T03:20:27.701Z,2.57
2023-10-22T03:22:55.015Z,2.30
2023-10-22T03:25:25.655Z,3.10
2023-10-22T03:27:53.082Z,2.73
2023-10-22T03:30:20.481Z,2.23
2023-10-22T03:32:47.786Z,3.40
2023-10-22T03:35:17.856Z,3.10
2023-10-22T03:37:45.203Z,2.20
2023-10-22T03:40:12.785Z,2.30
2023-10-22T03:42:40.410Z,4.23
2023-10-22T03:45:08.508Z,2.00
2023-10-22T03:47:36.223Z,2.00
2023-10-22T03:50:03.757Z,2.70
2023-10-22T03:52:33.368Z,3.63
2023-10-22T03:55:00.845Z,2.60
2023-10-22T03:57:29.173Z,2.53
2023-10-22T03:59:56.532Z,3.03
2023-10-22T04:02:24.318Z,2.93
2023-10-22T04:04:51.621Z,2.63
2023-10-22T04:07:18.820Z,2.53
2023-10-22T04:09:48.231Z,2.43
2023-10-22T04:12:15.829Z,2.20
2023-10-22T04:14:43.265Z,3.00
2023-10-22T04:17:10.646Z,2.57
2023-10-22T04:19:37.871Z,2.40
2023-10-22T04:22:05.164Z,2.50
2023-10-22T04:24:32.354Z,2.43
2023-10-22T04:26:59.636Z,3.03
2023-10-22T04:29:26.887Z,2.33
2023-10-22T04:31:54.034Z,2.47
2023-10-22T04:34:21.511Z,3.13
2023-10-22T04:36:49.782Z,2.93
2023-10-22T04:39:17.019Z,2.40
2023-10-22T04:41:44.601Z,2.70
2023-10-22T04:44:11.877Z,2.40
2023-10-22T04:46:39.131Z,3.10
2023-10-22T04:49:06.528Z,2.93
2023-10-22T04:51:33.764Z,2.70
2023-10-22T04:54:01.014Z,2.60
2023-10-22T04:56:28.890Z,2.70
2023-10-22T04:58:56.186Z,2.63
2023-10-22T05:01:23.381Z,2.67
2023-10-22T05:03:51.713Z,2.57
2023-10-22T05:06:22.780Z,2.50
2023-10-22T05:08:52.382Z,2.63
2023-10-22T05:11:22.189Z,2.83
2023-10-22T05:13:49.440Z,3.30
2023-10-22T05:16:16.644Z,3.23
2023-10-22T05:18:43.974Z,3.00
2023-10-22T05:21:11.749Z,2.50
2023-10-22T05:23:39.029Z,3.10
2023-10-22T05:26:10.203Z,3.00
2023-10-22T05:28:37.806Z,2.77
2023-10-22T05:31:14.089Z,2.47
2023-10-22T05:33:41.504Z,2.30
2023-10-22T05:36:21.796Z,2.57
2023-10-22T05:38:49.613Z,2.80
2023-10-22T05:41:20.194Z,3.13
2023-10-22T05:43:47.442Z,3.00
2023-10-22T05:46:14.742Z,3.00
2023-10-22T05:48:42.120Z,3.17
2023-10-22T05:51:09.565Z,3.00
2023-10-22T05:53:36.973Z,4.00
2023-10-22T05:56:04.862Z,2.80
2023-10-22T05:58:32.129Z,3.10
2023-10-22T06:01:00.347Z,2.70
2023-10-22T06:03:27.650Z,2.70
2023-10-22T06:05:55.774Z,2.63
2023-10-22T06:08:23.690Z,3.00
2023-10-22T06:10:50.880Z,3.10
2023-10-22T06:13:18.043Z,2.63
2023-10-22T06:15:46.522Z,2.80
2023-10-22T06:18:14.161Z,2.90
2023-10-22T06:20:41.739Z,4.23
2023-10-22T06:23:09.395Z,2.73
2023-10-22T06:25:36.761Z,2.83
2023-10-22T06:28:04.239Z,3.43
2023-10-22T06:30:31.635Z,2.33
2023-10-22T06:32:59.662Z,2.67
2023-10-22T06:35:30.675Z,2.80
2023-10-22T06:37:58.046Z,3.27
2023-10-22T06:40:25.697Z,3.30
2023-10-22T06:42:52.935Z,3.00
2023-10-22T06:45:21.192Z,2.83
2023-10-22T06:47:48.625Z,2.80
2023-10-22T06:50:16.165Z,2.80
2023-10-22T06:52:43.772Z,3.57
2023-10-22T06:55:11.529Z,2.50
2023-10-22T06:57:41.770Z,3.10
2023-10-22T07:00:14.001Z,3.30
2023-10-22T07:02:41.642Z,3.60
2023-10-22T07:05:11.669Z,2.90
2023-10-22T07:07:43.022Z,3.47
2023-10-22T07:10:11.037Z,3.10
2023-10-22T07:12:38.339Z,2.83
2023-10-22T07:15:05.971Z,2.00
2023-10-22T07:17:33.291Z,3.10
2023-10-22T07:20:00.497Z,2.77
2023-10-22T07:22:27.674Z,3.27
2023-10-22T07:24:55.684Z,2.80
2023-10-22T07:27:23.987Z,3.50
2023-10-22T07:29:51.324Z,4.63
2023-10-22T07:32:21.543Z,3.10
2023-10-22T07:34:48.852Z,4.40
2023-10-22T07:37:16.036Z,5.07
2023-10-22T07:39:43.248Z,3.50
2023-10-22T07:42:10.711Z,3.00
2023-10-22T07:44:40.212Z,2.77
2023-10-22T07:47:07.506Z,2.80
2023-10-22T07:49:36.934Z,3.10
2023-10-22T07:52:05.080Z,3.30
2023-10-22T07:54:32.423Z,2.43
2023-10-22T07:56:59.838Z,2.67
2023-10-22T07:59:27.080Z,2.47
2023-10-22T08:01:55.425Z,2.70
2023-10-22T08:04:22.657Z,2.50
2023-10-22T08:06:49.961Z,2.70
2023-10-22T08:09:18.306Z,2.50
2023-10-22T08:11:46.725Z,3.00
2023-10-22T08:14:14.539Z,2.70
2023-10-22T08:16:41.738Z,2.70
2023-10-22T08:19:09.916Z,2.80
2023-10-22T08:21:37.129Z,2.73
2023-10-22T08:24:04.569Z,2.90
2023-10-22T08:26:31.818Z,2.93
2023-10-22T08:28:59.020Z,2.80
2023-10-22T08:31:26.254Z,2.80
2023-10-22T08:33:53.851Z,2.90
2023-10-22T08:36:21.102Z,2.63
2023-10-22T08:38:49.549Z,2.93
2023-10-22T08:41:28.502Z,2.73
2023-10-22T08:43:56.199Z,2.57
2023-10-22T08:46:23.463Z,2.83
2023-10-22T08:48:51.870Z,5.10
2023-10-22T08:51:22.382Z,4.73
2023-10-22T08:53:50.929Z,3.00
2023-10-22T08:56:19.160Z,2.53
2023-10-22T08:58:46.799Z,2.90
2023-10-22T09:01:14.125Z,3.00
2023-10-22T09:03:42.940Z,2.77
2023-10-22T09:06:10.206Z,2.93
2023-10-22T09:08:47.765Z,3.17
2023-10-22T09:11:16.033Z,2.63
2023-10-22T09:13:45.639Z,3.13
2023-10-22T09:16:15.196Z,3.57
2023-10-22T09:18:47.286Z,3.80
2023-10-22T09:21:16.050Z,2.83
2023-10-22T09:23:44.177Z,2.60
2023-10-22T09:26:14.143Z,3.20
2023-10-22T09:28:41.828Z,3.40
2023-10-22T09:31:10.296Z,2.80
2023-10-22T09:33:43.302Z,3.20
2023-10-22T09:36:11.783Z,2.47
2023-10-22T09:38:43.341Z,2.90
2023-10-22T09:41:12.577Z,2.70
2023-10-22T09:43:40.948Z,2.80
2023-10-22T09:46:08.583Z,2.80
2023-10-22T09:48:36.794Z,3.07
2023-10-22T09:51:05.967Z,2.60
2023-10-22T09:53:39.223Z,3.77
2023-10-22T09:56:08.277Z,2.77
2023-10-22T09:58:43.826Z,3.27
2023-10-22T10:01:13.594Z,4.10
2023-10-22T10:03:41.974Z,3.00
2023-10-22T10:06:09.715Z,2.67
2023-10-22T10:08:38.576Z,2.83
2023-10-22T10:11:07.995Z,2.63
2023-10-22T10:13:36.579Z,2.77
2023-10-22T10:16:05.083Z,3.20
2023-10-22T10:18:51.003Z,2.87
2023-10-22T10:21:40.756Z,3.00
2023-10-22T10:24:18.286Z,2.50
2023-10-22T10:26:51.249Z,3.40
2023-10-22T10:29:23.120Z,2.50
2023-10-22T10:31:52.875Z,2.67
2023-10-22T10:34:27.282Z,3.40
2023-10-22T10:36:54.668Z,2.50
2023-10-22T10:39:37.876Z,2.40
2023-10-22T10:42:06.355Z,2.63
2023-10-22T10:44:33.838Z,2.83
2023-10-22T10:47:35.135Z,3.20
2023-10-22T10:50:04.670Z,2.70
2023-10-22T10:52:57.720Z,2.50
2023-10-22T10:55:30.882Z,3.27
2023-10-22T10:58:01.471Z,2.50
2023-10-22T11:00:34.137Z,2.50
2023-10-22T11:03:06.355Z,2.83
2023-10-22T11:05:38.822Z,3.20
2023-10-22T11:08:13.244Z,2.70
2023-10-22T11:10:41.595Z,2.80
2023-10-22T11:13:09.538Z,3.07
2023-10-22T11:15:38.445Z,2.60
2023-10-22T11:18:07.401Z,2.70
2023-10-22T11:20:36.092Z,2.50
2023-10-22T11:23:03.517Z,3.10
2023-10-22T11:25:32.228Z,3.33
2023-10-22T11:28:00.827Z,2.73
2023-10-22T11:30:38.546Z,2.63
2023-10-22T11:33:10.117Z,2.77
2023-10-22T11:35:39.099Z,3.33
2023-10-22T11:38:09.672Z,3.73
2023-10-22T11:40:39.079Z,2.43
2023-10-22T11:43:16.840Z,2.53
2023-10-22T11:45:54.747Z,3.10
2023-10-22T11:48:25.250Z,4.30
2023-10-22T11:50:58.456Z,3.30
2023-10-22T11:53:29.093Z,3.40
2023-10-22T11:55:57.725Z,2.67
2023-10-22T11:58:26.389Z,4.00
2023-10-22T12:00:54.197Z,2.70
2023-10-22T12:03:22.233Z,2.40
2023-10-22T12:05:50.162Z,3.30
2023-10-22T12:08:17.852Z,2.37
2023-10-22T12:10:45.547Z,3.00
2023-10-22T12:13:13.104Z,3.23
2023-10-22T12:15:40.348Z,3.00
2023-10-22T12:18:08.855Z,3.00
2023-10-22T12:20:36.250Z,3.40
2023-10-22T12:23:04.543Z,3.33
2023-10-22T12:25:32.645Z,3.30
2023-10-22T12:28:00.234Z,4.60
2023-10-22T12:30:28.116Z,3.10
2023-10-22T12:32:55.855Z,3.03
2023-10-22T12:35:24.763Z,3.37
2023-10-22T12:37:52.598Z,3.33
2023-10-22T12:40:19.961Z,3.60
2023-10-22T12:42:47.166Z,3.10
2023-10-22T12:45:14.609Z,5.07
2023-10-22T12:47:41.972Z,3.90
2023-10-22T12:50:09.595Z,4.00
2023-10-22T12:52:37.333Z,4.17
2023-10-22T12:55:07.044Z,4.77
2023-10-22T12:57:34.790Z,4.23
2023-10-22T13:00:05.474Z,3.43
2023-10-22T13:02:35.231Z,3.13
2023-10-22T13:05:02.735Z,3.53
2023-10-22T13:07:30.252Z,4.00
2023-10-22T13:09:58.428Z,3.67
2023-10-22T13:12:26.951Z,3.80
2023-10-22T13:14:57.397Z,4.17
2023-10-22T13:17:26.018Z,3.90
2023-10-22T13:19:53.246Z,3.40
2023-10-22T13:22:20.477Z,3.70
2023-10-22T13:24:49.196Z,3.93
2023-10-22T13:27:16.574Z,3.90
2023-10-22T13:29:45.093Z,4.07
2023-10-22T13:32:12.416Z,3.73
2023-10-22T13:34:39.849Z,3.47
2023-10-22T13:37:07.152Z,3.57
2023-10-22T13:39:34.398Z,3.50
2023-10-22T13:42:01.688Z,4.20
2023-10-22T13:44:29.956Z,3.63
2023-10-22T13:46:57.182Z,4.90
2023-10-22T13:49:24.713Z,3.50
2023-10-22T13:51:52.089Z,3.80
2023-10-22T13:54:20.680Z,3.03
2023-10-22T13:56:48.209Z,3.83
2023-10-22T13:59:17.012Z,3.30
2023-10-22T14:01:44.333Z,3.33
2023-10-22T14:04:19.401Z,3.20
2023-10-22T14:06:48.069Z,3.63
2023-10-22T14:09:16.163Z,3.40
2023-10-22T14:11:44.497Z,5.07
2023-10-22T14:14:11.724Z,3.33
2023-10-22T14:16:39.044Z,3.70
2023-10-22T14:19:06.345Z,3.70
2023-10-22T14:21:33.606Z,3.47
2023-10-22T14:24:00.910Z,3.03
2023-10-22T14:26:30.388Z,3.90
2023-10-22T14:28:57.620Z,3.30
2023-10-22T14:31:25.814Z,3.30
2023-10-22T14:33:53.136Z,4.10
2023-10-22T14:36:20.392Z,3.60
2023-10-22T14:38:48.336Z,3.60
2023-10-22T14:41:15.557Z,3.20
2023-10-22T14:43:43.264Z,3.00
2023-10-22T14:46:11.872Z,3.40
2023-10-22T14:48:39.247Z,3.43
2023-10-22T14:51:06.567Z,3.67
2023-10-22T14:53:34.304Z,2.70
2023-10-22T14:56:02.609Z,3.20
2023-10-22T14:58:30.333Z,3.80
2023-10-22T15:01:07.012Z,3.43
2023-10-22T15:03:34.516Z,4.13
2023-10-22T15:06:02.304Z,3.00
2023-10-22T15:08:30.756Z,2.83
2023-10-22T15:10:58.191Z,2.90
2023-10-22T15:13:25.492Z,2.90
2023-10-22T15:15:52.817Z,2.87
2023-10-22T15:18:20.159Z,3.33
2023-10-22T15:20:50.644Z,4.10
2023-10-22T15:23:18.218Z,3.40
2023-10-22T15:25:45.546Z,3.03
2023-10-22T15:28:13.779Z,3.60
2023-10-22T15:30:41.414Z,3.37
2023-10-22T15:33:08.836Z,3.33
2023-10-22T15:35:36.128Z,3.97
2023-10-22T15:38:04.311Z,3.30
2023-10-22T15:40:32.473Z,3.00
2023-10-22T15:43:02.247Z,3.20
2023-10-22T15:45:32.751Z,3.77
2023-10-22T15:48:01.532Z,2.83
2023-10-22T15:50:29.523Z,2.80
2023-10-22T15:52:58.078Z,2.50
2023-10-22T15:55:25.498Z,2.20
2023-10-22T15:57:53.076Z,2.53
2023-10-22T16:00:23.841Z,2.70
2023-10-22T16:02:51.563Z,3.43
2023-10-22T16:05:19.157Z,2.80
2023-10-22T16:07:46.496Z,3.20
2023-10-22T16:10:14.490Z,2.77
2023-10-22T16:12:42.342Z,3.17
2023-10-22T16:15:12.998Z,3.70
2023-10-22T16:17:43.326Z,3.30
2023-10-22T16:20:15.884Z,2.63
2023-10-22T16:22:45.251Z,2.63
2023-10-22T16:25:12.641Z,2.63
2023-10-22T16:27:45.839Z,3.30
2023-10-22T16:30:23.551Z,3.40
2023-10-22T16:32:56.196Z,2.70
2023-10-22T16:35:26.426Z,2.60
2023-10-22T16:37:53.700Z,2.77
2023-10-22T16:40:23.757Z,3.17
2023-10-22T16:42:51.329Z,2.50
2023-10-22T16:45:19.889Z,2.40
2023-10-22T16:47:48.094Z,2.30
2023-10-22T16:50:16.849Z,3.83
2023-10-22T16:52:44.292Z,2.10
2023-10-22T16:55:11.586Z,2.90
2023-10-22T16:57:39.912Z,2.47
2023-10-22T17:00:08.410Z,2.40
2023-10-22T17:02:35.932Z,5.30
2023-10-22T17:05:03.308Z,2.97
2023-10-22T17:07:33.051Z,3.00
2023-10-22T17:10:02.389Z,2.77
2023-10-22T17:12:29.762Z,2.67
2023-10-22T17:14:57.547Z,4.30
2023-10-22T17:17:25.940Z,4.23
2023-10-22T17:19:53.277Z,3.00
2023-10-22T17:22:21.103Z,2.50
2023-10-22T17:24:48.362Z,2.93
2023-10-22T17:27:16.566Z,2.23
2023-10-22T17:29:43.747Z,2.40
2023-10-22T17:32:10.943Z,2.63
2023-10-22T17:34:39.234Z,2.70
2023-10-22T17:37:08.118Z,3.00
2023-10-22T17:39:35.710Z,3.23
2023-10-22T17:42:03.059Z,3.00
2023-10-22T17:44:30.320Z,2.57
2023-10-22T17:46:57.594Z,3.80
2023-10-22T17:49:27.364Z,4.20
2023-10-22T17:51:54.528Z,5.20
2023-10-22T17:54:21.858Z,3.73
2023-10-22T17:56:49.054Z,3.37
2023-10-22T17:59:16.322Z,3.33
2023-10-22T18:01:43.577Z,3.17
2023-10-22T18:04:12.631Z,4.00
2023-10-22T18:06:39.973Z,3.70
2023-10-22T18:09:08.331Z,3.17
2023-10-22T18:11:38.154Z,3.63
2023-10-22T18:14:08.970Z,3.03
2023-10-22T18:16:36.840Z,3.60
2023-10-22T18:19:09.680Z,3.90
2023-10-22T18:21:38.256Z,4.50
2023-10-22T18:24:05.921Z,3.30
2023-10-22T18:26:36.605Z,2.97
2023-10-22T18:29:03.824Z,4.30
2023-10-22T18:31:31.569Z,4.90
2023-10-22T18:33:58.831Z,3.67
2023-10-22T18:36:28.462Z,3.40
2023-10-22T18:38:55.731Z,3.80
2023-10-22T18:41:23.048Z,3.87
2023-10-22T18:43:50.663Z,2.97
2023-10-22T18:46:21.278Z,3.83
2023-10-22T18:48:50.804Z,4.03
2023-10-22T18:51:21.231Z,2.60
2023-10-22T18:53:48.889Z,3.10
2023-10-22T18:56:16.355Z,3.20
2023-10-22T18:58:43.778Z,3.50
2023-10-22T19:01:15.591Z,3.13
2023-10-22T19:03:44.760Z,3.20
2023-10-22T19:06:12.426Z,2.80
2023-10-22T19:08:39.669Z,3.10
2023-10-22T19:11:06.907Z,3.10
2023-10-22T19:13:34.093Z,3.90
2023-10-22T19:16:02.235Z,4.00
2023-10-22T19:18:29.641Z,3.60
2023-10-22T19:21:01.806Z,3.40
2023-10-22T19:23:29.597Z,3.80
2023-10-22T19:25:57.714Z,3.50
2023-10-22T19:28:25.229Z,3.60
2023-10-22T19:30:52.599Z,3.70
2023-10-22T19:33:20.204Z,4.00
2023-10-22T19:35:47.869Z,3.20
2023-10-22T19:38:15.172Z,4.00
2023-10-22T19:40:43.584Z,4.20
2023-10-22T19:43:10.809Z,4.80
2023-10-22T19:45:39.037Z,4.30
2023-10-22T19:48:06.700Z,4.57
2023-10-22T19:50:34.049Z,4.27
2023-10-22T19:53:01.262Z,4.10
2023-10-22T19:55:28.481Z,3.70
2023-10-22T19:57:56.432Z,4.10
2023-10-22T20:00:23.700Z,4.73
2023-10-22T20:02:51.035Z,3.90
2023-10-22T20:05:18.343Z,3.80
2023-10-22T20:07:45.580Z,3.40
2023-10-22T20:10:12.975Z,3.77
2023-10-22T20:12:40.311Z,3.57
2023-10-22T20:15:09.966Z,4.07
2023-10-22T20:17:37.212Z,3.90
2023-10-22T20:20:04.612Z,4.77
2023-10-22T20:22:31.817Z,3.77
2023-10-22T20:24:59.048Z,4.50
2023-10-22T20:27:27.545Z,3.43
2023-10-22T20:29:54.821Z,3.70
2023-10-22T20:32:22.183Z,4.27
2023-10-22T20:34:49.477Z,2.97
2023-10-22T20:37:17.643Z,4.70
2023-10-22T20:39:44.951Z,4.27
2023-10-22T20:42:13.996Z,4.00
2023-10-22T20:44:42.167Z,3.97
2023-10-22T20:47:09.438Z,3.40
2023-10-22T20:49:36.840Z,4.40
2023-10-22T20:52:04.827Z,4.80
2023-10-22T20:54:32.406Z,4.53
2023-10-22T20:57:00.743Z,5.20
2023-10-22T20:59:28.033Z,4.73
2023-10-22T21:01:55.327Z,4.37
2023-10-22T21:04:24.155Z,4.70
2023-10-22T21:06:51.667Z,3.97
2023-10-22T21:09:18.903Z,4.27
2023-10-22T21:11:46.160Z,4.93
2023-10-22T21:14:13.396Z,4.10
2023-10-22T21:16:40.896Z,4.93
2023-10-22T21:19:08.640Z,4.83
2023-10-22T21:21:36.228Z,4.97
2023-10-22T21:24:03.511Z,4.73
2023-10-22T21:26:34.818Z,3.97
2023-10-22T21:29:04.776Z,3.80
2023-10-22T21:31:32.049Z,3.87
2023-10-22T21:33:59.317Z,4.30
2023-10-22T21:36:26.619Z,4.80
2023-10-22T21:38:53.820Z,5.30
2023-10-22T21:41:21.005Z,4.40
2023-10-22T21:43:49.332Z,4.70
2023-10-22T21:46:16.603Z,5.40
2023-10-22T21:48:44.197Z,4.70
2023-10-22T21:51:11.560Z,4.53
2023-10-22T21:53:38.794Z,4.40
2023-10-22T21:56:06.259Z,5.10
2023-10-22T21:58:33.570Z,6.00
2023-10-22T22:01:01.627Z,4.33
2023-10-22T22:03:29.336Z,5.40
2023-10-22T22:05:57.544Z,4.30
2023-10-22T22:08:24.762Z,5.60
2023-10-22T22:10:53.035Z,6.70
2023-10-22T22:13:20.322Z,5.13
2023-10-22T22:15:47.743Z,4.77
2023-10-22T22:18:15.163Z,5.50
2023-10-22T22:20:42.386Z,4.83
2023-10-22T22:23:09.662Z,5.20
2023-10-22T22:25:45.268Z,4.80
2023-10-22T22:28:14.339Z,5.60
2023-10-22T22:30:42.953Z,4.90
2023-10-22T22:33:10.465Z,5.10
2023-10-22T22:35:38.097Z,5.07
2023-10-22T22:38:05.298Z,4.97
2023-10-22T22:40:32.497Z,6.57
2023-10-22T22:42:59.797Z,5.33
2023-10-22T22:45:27.406Z,4.60
2023-10-22T22:47:54.734Z,5.37
2023-10-22T22:50:22.262Z,6.07
2023-10-22T22:52:49.430Z,6.73
2023-10-22T22:55:16.659Z,5.20
2023-10-22T22:57:46.320Z,6.43
2023-10-22T23:00:15.406Z,5.47
2023-10-22T23:02:43.221Z,6.50
2023-10-22T23:05:10.925Z,5.17
2023-10-22T23:07:38.821Z,4.67
2023-10-22T23:10:06.314Z,5.20
2023-10-22T23:12:36.202Z,5.53
2023-10-22T23:15:05.422Z,5.27
2023-10-22T23:17:33.213Z,5.07
2023-10-22T23:20:00.876Z,4.47
2023-10-22T23:22:28.184Z,5.13
2023-10-22T23:24:55.610Z,5.97
2023-10-22T23:27:23.198Z,6.40
2023-10-22T23:29:50.631Z,5.10
2023-10-22T23:32:18.082Z,7.13
2023-10-22T23:34:45.799Z,5.57
2023-10-22T23:37:13.163Z,5.47
2023-10-22T23:39:41.848Z,5.30
2023-10-22T23:42:09.394Z,4.50
2023-10-22T23:44:37.560Z,5.07
2023-10-22T23:47:05.891Z,5.10
2023-10-22T23:49:33.698Z,5.50
2023-10-22T23:52:01.300Z,6.03
2023-10-22T23:54:29.125Z,5.10
2023-10-22T23:56:57.253Z,5.20
2023-10-22T23:59:26.079Z,5.40
